METAR EVRA 280350Z 17013KT 9999 OVC004 01/00 Q1005 R18/290195 NOSIG =

Annual Statistics - Baltic Airports

(Click the images to zoom in)


Annual Traffic Trends, 2010-2018

 


Total Traffic Statistics (2010-2019) - last updated 25th April 2019

Controllers Online

PositionControllerOnline
No controllers currently online

Booked ATC Today

* Times are UTC

The time is now

UTC: 

Local: 

Latvia vACC on twitter

Official vACC of:

  

Latvia vACC on Facebook